createdAt,value
2023-02-07T00:00:00.957Z,99.90
2023-02-07T00:02:42.552Z,99.90
2023-02-07T00:05:13.420Z,99.90
2023-02-07T00:07:42.201Z,99.90
2023-02-07T00:10:12.776Z,99.90
2023-02-07T00:12:45.098Z,99.90
2023-02-07T00:15:16.058Z,99.90
2023-02-07T00:17:44.936Z,99.90
2023-02-07T00:20:12.772Z,99.90
2023-02-07T00:22:40.794Z,99.90
2023-02-07T00:25:34.400Z,99.90
2023-02-07T00:28:02.362Z,99.90
2023-02-07T00:30:32.788Z,99.90
2023-02-07T00:33:01.796Z,99.90
2023-02-07T00:35:34.335Z,99.90
2023-02-07T00:38:08.695Z,99.90
2023-02-07T00:40:35.324Z,99.90
2023-02-07T00:43:02.460Z,99.90
2023-02-07T00:45:30.954Z,99.90
2023-02-07T00:47:58.608Z,99.90
2023-02-07T00:50:28.126Z,99.90
2023-02-07T00:52:54.719Z,99.90
2023-02-07T00:55:24.759Z,99.90
2023-02-07T00:57:52.248Z,99.90
2023-02-07T01:00:25.685Z,99.90
2023-02-07T01:02:52.438Z,99.90
2023-02-07T01:05:24.881Z,99.90
2023-02-07T01:08:00.883Z,99.90
2023-02-07T01:10:28.488Z,99.90
2023-02-07T01:12:56.962Z,99.90
2023-02-07T01:15:27.348Z,99.90
2023-02-07T01:17:57.834Z,99.90
2023-02-07T01:20:25.770Z,99.90
2023-02-07T01:22:56.117Z,99.90
2023-02-07T01:25:23.878Z,99.90
2023-02-07T01:28:19.493Z,99.90
2023-02-07T01:30:47.596Z,99.90
2023-02-07T01:33:18.067Z,99.90
2023-02-07T01:35:46.283Z,99.90
2023-02-07T01:38:18.480Z,99.90
2023-02-07T01:40:52.287Z,99.90
2023-02-07T01:43:23.317Z,99.90
2023-02-07T01:46:19.450Z,99.90
2023-02-07T01:48:47.287Z,99.90
2023-02-07T01:51:15.954Z,99.90
2023-02-07T01:53:42.632Z,99.90
2023-02-07T01:57:07.302Z,99.90
2023-02-07T01:59:44.485Z,99.90
2023-02-07T02:02:18.629Z,99.90
2023-02-07T02:05:15.334Z,99.90
2023-02-07T02:07:43.436Z,99.90
2023-02-07T02:10:18.980Z,99.90
2023-02-07T02:13:05.441Z,99.90
2023-02-07T02:15:48.283Z,99.90
2023-02-07T02:18:17.981Z,99.90
2023-02-07T02:21:39.335Z,99.90
2023-02-07T02:24:34.696Z,99.90
2023-02-07T02:27:29.601Z,99.90
2023-02-07T02:31:06.442Z,99.90
2023-02-07T02:34:20.995Z,99.90
2023-02-07T02:43:07.350Z,99.90
2023-02-07T02:45:43.014Z,99.90
2023-02-07T02:48:11.896Z,99.90
2023-02-07T02:50:44.286Z,99.90
2023-02-07T02:53:21.380Z,99.90
2023-02-07T02:56:32.557Z,99.90
2023-02-07T02:59:27.486Z,99.90
2023-02-07T03:02:22.628Z,99.90
2023-02-07T03:04:57.555Z,99.90
2023-02-07T03:08:09.473Z,99.90
2023-02-07T03:11:06.489Z,99.90
2023-02-07T03:14:11.104Z,99.90
2023-02-07T03:16:59.385Z,99.90
2023-02-07T03:19:47.035Z,99.90
2023-02-07T03:22:18.641Z,99.90
2023-02-07T03:24:54.900Z,99.90
2023-02-07T03:27:25.180Z,99.90
2023-02-07T03:29:58.404Z,99.90
2023-02-07T03:32:38.186Z,99.90
2023-02-07T03:35:34.302Z,99.90
2023-02-07T03:38:04.800Z,99.90
2023-02-07T03:40:45.663Z,99.90
2023-02-07T03:43:27.124Z,99.90
2023-02-07T03:45:56.796Z,99.90
2023-02-07T03:48:24.941Z,99.90
2023-02-07T03:50:53.054Z,99.90
2023-02-07T03:56:38.537Z,99.90
2023-02-07T03:59:14.180Z,99.90
2023-02-07T04:01:48.400Z,99.90
2023-02-07T04:04:20.897Z,99.90
2023-02-07T04:06:48.130Z,99.90
2023-02-07T04:09:39.830Z,99.90
2023-02-07T04:12:07.883Z,99.90
2023-02-07T04:14:41.561Z,99.90
2023-02-07T04:17:11.335Z,99.90
2023-02-07T04:19:42.692Z,99.90
2023-02-07T04:22:45.431Z,99.90
2023-02-07T04:25:12.183Z,99.90
2023-02-07T04:27:44.469Z,99.90
2023-02-07T04:30:12.371Z,99.90
2023-02-07T04:32:41.723Z,99.90
2023-02-07T04:35:12.068Z,99.90
2023-02-07T04:37:40.019Z,99.90
2023-02-07T04:40:08.648Z,99.90
2023-02-07T04:42:36.591Z,99.90
2023-02-07T04:45:29.090Z,99.90
2023-02-07T04:47:57.537Z,99.90
2023-02-07T04:50:55.477Z,99.90
2023-02-07T04:53:23.512Z,99.90
2023-02-07T04:55:56.835Z,99.90
2023-02-07T04:58:23.860Z,99.90
2023-02-07T05:00:54.531Z,99.90
2023-02-07T05:03:21.408Z,99.90
2023-02-07T05:05:50.639Z,99.90
2023-02-07T05:08:17.601Z,99.90
2023-02-07T05:10:50.796Z,99.90
2023-02-07T05:13:20.129Z,99.90
2023-02-07T05:15:48.902Z,99.90
2023-02-07T05:18:20.128Z,99.90
2023-02-07T05:20:52.708Z,99.90
2023-02-07T05:23:19.848Z,99.90
2023-02-07T05:25:48.655Z,99.90
2023-02-07T05:28:19.269Z,99.90
2023-02-07T05:30:46.405Z,99.90
2023-02-07T05:33:13.508Z,99.90
2023-02-07T05:35:49.640Z,99.90
2023-02-07T05:38:18.202Z,99.90
2023-02-07T05:40:45.890Z,99.90
2023-02-07T05:43:13.900Z,99.90
2023-02-07T05:45:45.172Z,99.90
2023-02-07T05:48:12.926Z,99.90
2023-02-07T05:50:41.916Z,99.90
2023-02-07T05:53:09.874Z,99.90
2023-02-07T05:55:45.118Z,99.90
2023-02-07T05:58:12.582Z,99.90
2023-02-07T06:00:39.943Z,99.90
2023-02-07T06:03:06.816Z,99.90
2023-02-07T06:05:34.517Z,99.90
2023-02-07T06:08:03.614Z,99.90
2023-02-07T06:10:32.430Z,99.90
2023-02-07T06:13:01.355Z,99.90
2023-02-07T06:15:28.323Z,99.90
2023-02-07T06:17:58.372Z,99.90
2023-02-07T06:20:25.158Z,99.90
2023-02-07T06:22:52.541Z,99.90
2023-02-07T06:25:22.636Z,99.90
2023-02-07T06:27:49.619Z,99.90
2023-02-07T06:30:19.523Z,99.90
2023-02-07T06:32:46.313Z,99.90
2023-02-07T06:35:13.352Z,99.90
2023-02-07T06:37:43.159Z,99.90
2023-02-07T06:40:10.724Z,99.90
2023-02-07T06:42:37.717Z,99.90
2023-02-07T06:45:04.994Z,99.90
2023-02-07T06:47:31.967Z,99.90
2023-02-07T06:50:03.976Z,99.90
2023-02-07T06:52:30.940Z,99.90
2023-02-07T06:54:58.029Z,99.90
2023-02-07T06:57:25.452Z,99.90
2023-02-07T06:59:52.547Z,99.90
2023-02-07T07:02:19.391Z,99.90
2023-02-07T07:04:46.614Z,99.90
2023-02-07T07:07:21.692Z,99.90
2023-02-07T07:09:49.251Z,99.90
2023-02-07T07:12:17.537Z,99.90
2023-02-07T07:14:44.806Z,99.90
2023-02-07T07:17:11.801Z,99.90
2023-02-07T07:19:39.716Z,99.90
2023-02-07T07:22:06.581Z,99.90
2023-02-07T07:24:33.619Z,99.90
2023-02-07T07:27:05.431Z,99.90
2023-02-07T07:29:32.595Z,99.90
2023-02-07T07:32:13.066Z,99.90
2023-02-07T07:34:45.000Z,99.90
2023-02-07T07:37:11.993Z,99.90
2023-02-07T07:39:39.204Z,99.90
2023-02-07T07:42:07.405Z,99.90
2023-02-07T07:44:49.581Z,99.90
2023-02-07T07:47:16.374Z,99.90
2023-02-07T07:49:43.149Z,99.90
2023-02-07T07:52:11.300Z,99.90
2023-02-07T07:54:45.066Z,99.90
2023-02-07T07:57:12.183Z,99.90
2023-02-07T07:59:39.088Z,99.90
2023-02-07T08:02:09.050Z,99.90
2023-02-07T08:04:36.517Z,99.90
2023-02-07T08:07:03.391Z,99.90
2023-02-07T08:09:37.586Z,99.90
2023-02-07T08:12:05.893Z,99.90
2023-02-07T08:14:32.812Z,99.90
2023-02-07T08:17:05.262Z,99.90
2023-02-07T08:19:32.288Z,99.90
2023-02-07T08:22:01.128Z,99.90
2023-02-07T08:24:28.105Z,99.90
2023-02-07T08:26:54.914Z,99.90
2023-02-07T08:29:23.765Z,99.90
2023-02-07T08:31:52.651Z,99.90
2023-02-07T08:34:25.545Z,99.90
2023-02-07T08:36:58.765Z,99.90
2023-02-07T08:39:25.697Z,99.90
2023-02-07T08:41:52.726Z,99.90
2023-02-07T08:44:21.621Z,99.90
2023-02-07T08:46:50.642Z,99.90
2023-02-07T08:49:17.667Z,99.90
2023-02-07T08:51:46.670Z,99.90
2023-02-07T08:54:13.818Z,99.90
2023-02-07T08:56:40.618Z,99.90
2023-02-07T08:59:16.251Z,99.90
2023-02-07T09:01:43.600Z,99.90
2023-02-07T09:04:13.513Z,99.90
2023-02-07T09:06:40.424Z,99.90
2023-02-07T09:09:10.213Z,99.90
2023-02-07T09:11:37.060Z,99.90
2023-02-07T09:14:15.788Z,99.90
2023-02-07T09:16:42.736Z,99.90
2023-02-07T09:19:12.709Z,99.90
2023-02-07T09:21:39.467Z,99.90
2023-02-07T09:24:18.549Z,99.90
2023-02-07T09:26:49.061Z,99.90
2023-02-07T09:29:18.647Z,99.90
2023-02-07T09:31:46.395Z,99.90
2023-02-07T09:34:16.442Z,99.90
2023-02-07T09:36:44.768Z,99.90
2023-02-07T09:39:15.112Z,99.90
2023-02-07T09:42:19.991Z,99.90
2023-02-07T09:51:00.155Z,99.90
2023-02-07T09:59:41.443Z,99.90
2023-02-07T10:02:24.889Z,99.90
2023-02-07T10:04:55.334Z,99.90
2023-02-07T10:10:27.776Z,99.90
2023-02-07T10:13:05.061Z,99.90
2023-02-07T10:15:56.578Z,99.90
2023-02-07T10:19:06.044Z,99.90
2023-02-07T10:22:10.877Z,99.90
2023-02-07T10:25:23.267Z,99.90
2023-02-07T10:30:57.031Z,99.90
2023-02-07T10:36:34.854Z,99.90
2023-02-07T10:39:18.459Z,99.90
2023-02-07T10:41:46.097Z,99.90
2023-02-07T10:47:20.065Z,99.90
2023-02-07T10:49:55.282Z,99.90
2023-02-07T10:52:42.925Z,99.90
2023-02-07T10:58:08.585Z,99.90
2023-02-07T11:00:50.320Z,99.90
2023-02-07T11:03:24.915Z,99.90
2023-02-07T11:05:59.780Z,99.90
2023-02-07T11:08:32.944Z,99.90
2023-02-07T11:11:19.412Z,99.90
2023-02-07T11:14:09.127Z,99.90
2023-02-07T11:16:38.612Z,99.90
2023-02-07T11:19:14.921Z,99.90
2023-02-07T11:21:44.733Z,99.90
2023-02-07T11:33:32.552Z,99.90
2023-02-07T11:39:14.963Z,99.90
2023-02-07T11:41:52.870Z,99.90
2023-02-07T11:50:07.562Z,99.90
2023-02-07T11:52:41.750Z,99.90
2023-02-07T11:55:26.715Z,99.90
2023-02-07T11:57:58.164Z,99.90
2023-02-07T12:00:40.165Z,99.90
2023-02-07T12:03:38.909Z,99.90
2023-02-07T12:06:13.168Z,99.90
2023-02-07T12:08:43.712Z,99.90
2023-02-07T12:11:18.401Z,99.70
2023-02-07T12:16:41.019Z,99.50
2023-02-07T12:22:01.509Z,99.20
2023-02-07T12:24:45.232Z,97.70
2023-02-07T12:27:13.522Z,97.90
2023-02-07T12:38:25.562Z,97.60
2023-02-07T12:44:08.215Z,96.30
2023-02-07T12:47:04.574Z,96.20
2023-02-07T12:52:36.758Z,94.90
2023-02-07T12:58:23.924Z,94.50
2023-02-07T13:00:53.754Z,94.30
2023-02-07T13:03:44.305Z,95.90
2023-02-07T13:24:29.245Z,91.80
2023-02-07T13:27:03.355Z,91.90
2023-02-07T13:32:37.295Z,91.30
2023-02-07T13:35:10.569Z,90.80
2023-02-07T13:38:01.987Z,91.80
2023-02-07T13:55:38.964Z,90.20
2023-02-07T14:04:46.427Z,89.10
2023-02-07T14:07:25.480Z,87.40
2023-02-07T14:09:58.151Z,87.50
2023-02-07T14:12:36.672Z,87.40
2023-02-07T14:15:42.977Z,86.70
2023-02-07T14:18:49.365Z,85.80
2023-02-07T14:21:31.148Z,87.90
2023-02-07T14:24:00.574Z,87.20
2023-02-07T14:29:30.101Z,88.90
2023-02-07T14:32:18.402Z,87.40
2023-02-07T14:34:57.979Z,88.00
2023-02-07T14:37:36.871Z,87.10
2023-02-07T14:40:30.784Z,88.40
2023-02-07T14:43:03.323Z,86.80
2023-02-07T14:45:34.792Z,88.30
2023-02-07T14:48:03.758Z,88.50
2023-02-07T14:50:32.700Z,88.60
2023-02-07T14:53:05.252Z,89.60
2023-02-07T14:55:46.818Z,89.10
2023-02-07T14:58:41.546Z,89.40
2023-02-07T15:01:19.439Z,90.00
2023-02-07T15:04:11.764Z,89.90
2023-02-07T15:06:46.480Z,89.90
2023-02-07T15:09:26.586Z,90.50
2023-02-07T15:14:58.233Z,92.30
2023-02-07T15:20:37.787Z,92.10
2023-02-07T15:31:51.608Z,93.20
2023-02-07T15:34:35.938Z,93.00
2023-02-07T15:39:57.491Z,93.30
2023-02-07T15:42:24.251Z,92.60
2023-02-07T15:44:57.873Z,92.70
2023-02-07T15:47:32.857Z,92.90
2023-02-07T15:50:22.787Z,92.90
2023-02-07T15:53:23.700Z,93.20
2023-02-07T15:55:53.764Z,93.70
2023-02-07T15:58:24.588Z,93.90
2023-02-07T16:00:58.129Z,93.80
2023-02-07T16:03:51.218Z,93.90
2023-02-07T16:06:21.536Z,94.40
2023-02-07T16:11:44.210Z,93.80
2023-02-07T16:14:24.901Z,94.90
2023-02-07T16:16:56.265Z,94.40
2023-02-07T16:19:26.729Z,94.10
2023-02-07T16:22:10.038Z,94.50
2023-02-07T16:24:41.859Z,94.80
2023-02-07T16:27:31.036Z,94.70
2023-02-07T16:30:03.128Z,95.40
2023-02-07T16:32:33.061Z,95.60
2023-02-07T16:35:10.882Z,95.20
2023-02-07T16:37:37.593Z,95.80
2023-02-07T16:40:04.574Z,95.60
2023-02-07T16:42:36.298Z,95.70
2023-02-07T16:45:05.496Z,95.70
2023-02-07T16:47:35.688Z,95.50
2023-02-07T16:50:02.648Z,95.50
2023-02-07T16:52:31.212Z,95.80
2023-02-07T16:54:57.881Z,95.70
2023-02-07T16:57:26.676Z,95.90
2023-02-07T17:05:26.934Z,96.10
2023-02-07T17:07:53.625Z,96.40
2023-02-07T17:10:23.181Z,96.60
2023-02-07T17:16:04.546Z,97.90
2023-02-07T17:18:34.607Z,98.50
2023-02-07T17:21:04.631Z,99.40
2023-02-07T17:23:38.608Z,99.90
2023-02-07T17:35:22.517Z,99.90
2023-02-07T17:38:15.171Z,99.90
2023-02-07T17:40:42.288Z,99.90
2023-02-07T17:43:09.168Z,99.90
2023-02-07T17:45:43.745Z,99.90
2023-02-07T17:48:11.971Z,99.90
2023-02-07T17:50:44.693Z,99.90
2023-02-07T17:53:11.905Z,99.90
2023-02-07T17:55:42.754Z,99.90
2023-02-07T17:58:17.970Z,99.90
2023-02-07T18:00:48.792Z,99.90
2023-02-07T18:03:51.084Z,99.90
2023-02-07T18:06:25.700Z,99.90
2023-02-07T18:08:56.354Z,99.90
2023-02-07T18:11:34.164Z,99.90
2023-02-07T18:14:11.308Z,99.90
2023-02-07T18:16:38.024Z,99.90
2023-02-07T18:19:05.295Z,99.90
2023-02-07T18:21:35.602Z,99.90
2023-02-07T18:24:03.191Z,99.90
2023-02-07T18:26:31.150Z,99.90
2023-02-07T18:28:57.971Z,99.90
2023-02-07T18:31:24.913Z,99.90
2023-02-07T18:33:56.885Z,99.90
2023-02-07T18:36:29.266Z,99.90
2023-02-07T18:39:00.184Z,99.90
2023-02-07T18:41:27.391Z,99.90
2023-02-07T18:43:54.818Z,99.90
2023-02-07T18:46:23.731Z,99.90
2023-02-07T18:48:57.689Z,99.90
2023-02-07T18:51:25.115Z,99.90
2023-02-07T18:53:57.672Z,99.90
2023-02-07T18:56:28.869Z,99.90
2023-02-07T18:58:56.030Z,99.90
2023-02-07T19:01:34.299Z,99.90
2023-02-07T19:04:01.828Z,99.90
2023-02-07T19:06:30.457Z,99.90
2023-02-07T19:09:25.416Z,99.90
2023-02-07T19:12:01.781Z,99.90
2023-02-07T19:14:30.628Z,99.90
2023-02-07T19:16:58.437Z,99.90
2023-02-07T19:19:51.488Z,99.90
2023-02-07T19:22:30.014Z,99.90
2023-02-07T19:25:12.487Z,99.90
2023-02-07T19:27:39.179Z,99.90
2023-02-07T19:30:08.809Z,99.90
2023-02-07T19:32:37.736Z,99.90
2023-02-07T19:35:05.004Z,99.90
2023-02-07T19:37:33.768Z,99.90
2023-02-07T19:40:00.453Z,99.90
2023-02-07T19:42:28.054Z,99.90
2023-02-07T19:44:55.844Z,99.90
2023-02-07T19:47:28.048Z,99.90
2023-02-07T19:49:58.433Z,99.90
2023-02-07T19:52:26.543Z,99.90
2023-02-07T19:54:56.003Z,99.90
2023-02-07T19:57:23.952Z,99.90
2023-02-07T19:59:51.158Z,99.90
2023-02-07T20:02:20.124Z,99.90
2023-02-07T20:04:46.996Z,99.90
2023-02-07T20:07:14.962Z,99.90
2023-02-07T20:09:42.087Z,99.90
2023-02-07T20:12:24.119Z,99.90
2023-02-07T20:14:51.019Z,99.90
2023-02-07T20:17:17.844Z,99.90
2023-02-07T20:19:44.506Z,99.90
2023-02-07T20:22:11.428Z,99.90
2023-02-07T20:24:38.163Z,99.90
2023-02-07T20:27:09.902Z,99.90
2023-02-07T20:29:39.102Z,99.90
2023-02-07T20:32:06.723Z,99.90
2023-02-07T20:34:39.991Z,99.90
2023-02-07T20:37:08.461Z,99.90
2023-02-07T20:39:37.494Z,99.90
2023-02-07T20:42:04.667Z,99.90
2023-02-07T20:44:31.694Z,99.90
2023-02-07T20:47:03.942Z,99.90
2023-02-07T20:49:35.063Z,99.90
2023-02-07T20:52:27.302Z,99.90
2023-02-07T20:55:02.571Z,99.90
2023-02-07T20:57:32.991Z,99.90
2023-02-07T21:00:03.026Z,99.90
2023-02-07T21:02:32.958Z,99.90
2023-02-07T21:05:05.198Z,99.90
2023-02-07T21:07:31.884Z,99.90
2023-02-07T21:10:02.011Z,99.90
2023-02-07T21:12:31.982Z,99.90
2023-02-07T21:15:04.619Z,99.90
2023-02-07T21:17:31.282Z,99.90
2023-02-07T21:20:09.919Z,99.90
2023-02-07T21:22:36.902Z,99.90
2023-02-07T21:25:03.694Z,99.90
2023-02-07T21:27:34.008Z,99.90
2023-02-07T21:30:00.765Z,99.90
2023-02-07T21:32:27.531Z,99.90
2023-02-07T21:34:55.155Z,99.90
2023-02-07T21:37:23.031Z,99.90
2023-02-07T21:40:09.000Z,99.90
2023-02-07T21:42:40.932Z,99.90
2023-02-07T21:45:08.038Z,99.90
2023-02-07T21:47:38.343Z,99.90
2023-02-07T21:50:06.350Z,99.90
2023-02-07T21:52:35.868Z,99.90
2023-02-07T21:55:02.749Z,99.90
2023-02-07T21:57:29.581Z,99.90
2023-02-07T21:59:57.315Z,99.90
2023-02-07T22:02:26.526Z,99.90
2023-02-07T22:05:18.591Z,99.90
2023-02-07T22:07:47.727Z,99.90
2023-02-07T22:10:14.482Z,99.90
2023-02-07T22:12:43.895Z,99.90
2023-02-07T22:15:10.703Z,99.90
2023-02-07T22:21:07.985Z,99.90
2023-02-07T22:23:35.783Z,99.90
2023-02-07T22:26:06.132Z,99.90
2023-02-07T22:28:36.240Z,99.90
2023-02-07T22:31:28.067Z,99.90
2023-02-07T22:34:22.296Z,99.90
2023-02-07T22:36:59.837Z,99.90
2023-02-07T22:39:26.614Z,99.90
2023-02-07T22:41:56.421Z,99.90
2023-02-07T22:44:24.242Z,99.90
2023-02-07T22:46:53.468Z,99.90
2023-02-07T22:49:20.150Z,99.90
2023-02-07T22:51:50.173Z,99.90
2023-02-07T22:54:22.064Z,99.90
2023-02-07T22:56:49.893Z,99.90
2023-02-07T22:59:19.660Z,99.90
2023-02-07T23:04:42.605Z,99.90
2023-02-07T23:07:09.471Z,99.90
2023-02-07T23:09:39.469Z,99.90
2023-02-07T23:12:06.255Z,99.90
2023-02-07T23:14:32.943Z,99.90
2023-02-07T23:17:03.202Z,99.90
2023-02-07T23:19:29.891Z,99.90
2023-02-07T23:21:59.496Z,99.90
2023-02-07T23:24:28.677Z,99.90
2023-02-07T23:26:59.161Z,99.90
2023-02-07T23:29:25.871Z,99.90
2023-02-07T23:31:58.137Z,99.90
2023-02-07T23:34:28.762Z,99.90
2023-02-07T23:37:10.103Z,99.90
2023-02-07T23:39:39.285Z,99.90
2023-02-07T23:42:15.733Z,99.90
2023-02-07T23:44:42.889Z,99.90
2023-02-07T23:47:09.631Z,99.90
2023-02-07T23:49:37.415Z,99.90
2023-02-07T23:52:04.228Z,99.90
2023-02-07T23:57:27.405Z,99.90
2023-02-07T23:59:59.433Z,99.90
